Time;durP1;ratioP1;P1;durP2;ratioP2;P2;SDS_P1;SDS_P2;PMS_P1;PMS_P2;Temp;Humidity;BMP_temperature;BMP_pressure;BME280_temperature;BME280_humidity;BME280_pressure;Samples;Min_cycle;Max_cycle;Signal;HPM_P1;HPM_P2
2023/10/17 00:02:10;;;;;;;21.07;9.27;;;;;;;5.88;72.41;101151.39;124701;1105;104249;-83
2023/10/17 00:04:41;;;;;;;21.60;9.95;;;;;;;5.88;72.52;101154.89;124771;1105;102040;-83
2023/10/17 00:07:10;;;;;;;23.63;9.57;;;;;;;5.82;72.36;101161.41;124764;1104;102121;-84
2023/10/17 00:09:39;;;;;;;21.63;9.47;;;;;;;5.70;72.68;101146.80;124880;1105;104172;-84
2023/10/17 00:12:14;;;;;;;20.23;9.73;;;;;;;5.66;72.33;101157.80;124705;1105;104224;-85
2023/10/17 00:14:45;;;;;;;19.40;9.40;;;;;;;5.63;72.60;101152.39;124631;1105;104185;-84
2023/10/17 00:17:15;;;;;;;19.50;9.43;;;;;;;5.62;72.71;101147.08;124729;1105;104648;-83
2023/10/17 00:19:45;;;;;;;22.50;9.93;;;;;;;5.59;72.53;101150.38;124734;1104;102131;-82
2023/10/17 00:22:18;;;;;;;17.40;8.60;;;;;;;5.57;72.85;101151.98;124756;1105;102190;-83
2023/10/17 00:24:47;;;;;;;20.27;9.50;;;;;;;5.57;72.84;101141.57;124801;1105;102310;-83
2023/10/17 00:27:15;;;;;;;20.07;9.43;;;;;;;5.58;73.10;101148.59;124646;1104;104338;-83
2023/10/17 00:29:45;;;;;;;21.23;9.10;;;;;;;5.57;72.79;101146.78;124804;1105;104329;-82
2023/10/17 00:32:16;;;;;;;18.97;9.07;;;;;;;5.55;72.81;101145.78;124851;1105;102189;-83
2023/10/17 00:34:46;;;;;;;21.40;9.70;;;;;;;5.55;73.09;101144.07;125230;1103;101807;-83
2023/10/17 00:37:15;;;;;;;20.07;9.53;;;;;;;5.54;73.06;101136.16;124783;1105;104140;-83
2023/10/17 00:39:46;;;;;;;23.95;10.05;;;;;;;5.57;73.03;101146.78;124722;1105;104287;-84
2023/10/17 00:42:34;;;;;;;20.10;9.97;;;;;;;5.56;73.75;101144.96;124860;1105;104179;-84
2023/10/17 00:45:03;;;;;;;21.70;9.07;;;;;;;5.53;73.57;101144.76;124707;1105;104182;-83
2023/10/17 00:47:32;;;;;;;19.47;9.43;;;;;;;5.47;73.20;101141.75;124673;1105;104284;-83
2023/10/17 00:50:12;;;;;;;19.53;9.00;;;;;;;5.40;73.58;101143.94;124662;1105;104208;-84
2023/10/17 00:52:43;;;;;;;20.23;9.60;;;;;;;5.36;73.06;101152.36;124667;1105;101852;-84
2023/10/17 00:55:14;;;;;;;19.40;9.37;;;;;;;5.33;73.51;101146.03;124772;1105;104214;-84
2023/10/17 00:57:45;;;;;;;22.37;9.53;;;;;;;5.32;73.53;101152.05;124690;1105;104217;-82
2023/10/17 01:00:23;;;;;;;21.93;9.07;;;;;;;5.36;74.21;101162.77;125395;1103;107168;-83
2023/10/17 01:02:57;;;;;;;18.97;9.03;;;;;;;5.40;73.46;101163.88;124693;1105;104350;-84
2023/10/17 01:05:28;;;;;;;18.90;9.40;;;;;;;5.45;74.08;101166.78;124723;1105;104179;-84
2023/10/17 01:07:57;;;;;;;21.50;9.53;;;;;;;5.51;73.96;101159.38;124700;1105;101893;-83
2023/10/17 01:10:28;;;;;;;20.87;9.33;;;;;;;5.55;74.19;101157.09;124644;1105;117859;-85
2023/10/17 01:13:02;;;;;;;19.23;9.30;;;;;;;5.59;74.18;101155.58;124635;1105;104297;-85
2023/10/17 01:15:33;;;;;;;20.73;10.33;;;;;;;5.63;74.57;101159.31;124717;1105;101983;-85
2023/10/17 01:18:04;;;;;;;22.63;9.23;;;;;;;5.63;73.92;101162.80;124661;1105;104220;-79
2023/10/17 01:20:34;;;;;;;18.80;8.73;;;;;;;5.64;74.45;101161.09;124655;1105;104211;-85
2023/10/17 01:23:04;;;;;;;18.60;9.07;;;;;;;5.63;74.58;101162.80;124747;1105;101954;-84
2023/10/17 01:25:35;;;;;;;20.40;8.87;;;;;;;5.65;74.26;101155.09;124703;1105;101993;-84
2023/10/17 01:28:06;;;;;;;18.00;8.77;;;;;;;5.65;74.17;101155.98;125649;1103;102153;-85
2023/10/17 01:30:35;;;;;;;18.43;8.93;;;;;;;5.65;74.58;101160.30;125004;1104;102086;-84
2023/10/17 01:33:07;;;;;;;20.87;9.13;;;;;;;5.64;74.47;101162.02;124772;1105;102201;-84
2023/10/17 01:35:36;;;;;;;18.17;8.57;;;;;;;5.65;74.36;101169.00;124670;1105;101989;-83
2023/10/17 01:38:05;;;;;;;19.90;9.20;;;;;;;5.66;74.52;101165.61;124626;1105;104280;-84
2023/10/17 01:40:37;;;;;;;19.67;8.93;;;;;;;5.64;74.83;101164.62;124651;1105;104249;-83
2023/10/17 01:43:06;;;;;;;20.60;9.47;;;;;;;5.62;74.60;101162.70;125017;1105;104179;-84
2023/10/17 01:45:37;;;;;;;20.73;9.17;;;;;;;5.57;74.70;101165.00;124793;1105;104227;-84
2023/10/17 01:48:11;;;;;;;18.90;9.37;;;;;;;5.55;74.56;101164.90;124659;1105;102465;-84
2023/10/17 01:50:40;;;;;;;19.37;9.28;;;;;;;5.52;74.65;101167.30;124674;1105;102089;-84
2023/10/17 01:53:12;;;;;;;18.37;9.00;;;;;;;5.50;75.05;101166.30;124800;1103;102113;-84
2023/10/17 01:55:42;;;;;;;19.90;9.57;;;;;;;5.50;74.85;101163.70;124734;1105;104220;-84
2023/10/17 01:58:15;;;;;;;20.00;8.87;;;;;;;5.51;74.76;101167.19;124699;1105;104175;-84
2023/10/17 02:00:45;;;;;;;22.50;9.55;;;;;;;5.49;74.60;101166.20;124653;1105;104255;-83
2023/10/17 02:03:16;;;;;;;19.93;9.40;;;;;;;5.49;75.07;101169.70;124800;1105;101948;-83
2023/10/17 02:05:45;;;;;;;20.10;8.53;;;;;;;5.40;75.07;101164.77;124684;1105;104176;-84
2023/10/17 02:08:14;;;;;;;20.30;8.83;;;;;;;5.35;75.13;101166.16;124924;1105;104277;-84
2023/10/17 02:10:43;;;;;;;23.90;9.40;;;;;;;5.28;75.12;101169.14;124710;1105;102064;-84
2023/10/17 02:13:13;;;;;;;20.63;8.40;;;;;;;5.25;75.28;101163.77;124738;1105;101922;-85
2023/10/17 02:15:42;;;;;;;16.90;8.07;;;;;;;5.26;75.58;101169.86;125536;1105;101989;-85
2023/10/17 02:18:15;;;;;;;21.65;9.10;;;;;;;5.27;75.30;101169.07;124738;1105;102048;-85
2023/10/17 02:20:51;;;;;;;18.30;8.33;;;;;;;5.26;75.55;101159.45;124609;1105;104219;-84
2023/10/17 02:23:19;;;;;;;20.93;9.07;;;;;;;5.25;75.72;101168.97;125163;1105;104182;-84
2023/10/17 02:25:50;;;;;;;19.17;8.90;;;;;;;5.24;75.20;101171.46;124744;1105;101902;-83
2023/10/17 02:28:18;;;;;;;19.13;9.10;;;;;;;5.23;75.29;101175.74;124727;1105;101926;-84
2023/10/17 02:30:47;;;;;;;19.93;8.57;;;;;;;5.19;75.65;101172.05;124658;1105;102336;-84
2023/10/17 02:33:17;;;;;;;17.70;8.73;;;;;;;5.19;75.79;101173.75;125230;1103;104223;-85
2023/10/17 02:36:04;;;;;;;20.73;8.90;;;;;;;5.19;75.52;101173.75;124762;1105;101849;-85
2023/10/17 02:38:33;;;;;;;19.37;9.03;;;;;;;5.16;75.60;101176.14;124783;1105;101922;-84
2023/10/17 02:41:01;;;;;;;18.60;8.67;;;;;;;5.16;75.93;101169.23;124709;1105;103793;-85
2023/10/17 02:43:34;;;;;;;18.67;8.67;;;;;;;5.13;75.98;101169.02;124770;1104;101811;-85
2023/10/17 02:46:04;;;;;;;18.13;8.87;;;;;;;5.13;75.43;101170.73;124607;1105;101855;-82
2023/10/17 02:48:38;;;;;;;20.20;8.90;;;;;;;5.11;75.74;101174.91;124780;1105;101894;-84
2023/10/17 02:51:18;;;;;;;18.47;8.50;;;;;;;5.12;75.91;101174.12;124704;1105;104176;-85
2023/10/17 02:53:46;;;;;;;19.27;9.00;;;;;;;5.13;76.02;101179.43;125302;1105;104204;-84
2023/10/17 02:56:21;;;;;;;20.67;8.90;;;;;;;5.15;75.86;101180.42;125574;1104;104243;-84
2023/10/17 02:58:59;;;;;;;20.07;9.03;;;;;;;5.19;75.50;101179.84;124745;1105;101891;-84
2023/10/17 03:01:28;;;;;;;22.23;8.80;;;;;;;5.19;75.87;101178.95;124632;1104;104220;-83
2023/10/17 03:04:07;;;;;;;16.53;7.90;;;;;;;5.17;76.03;101183.13;125174;1105;101947;-83
2023/10/17 03:06:38;;;;;;;17.87;8.53;;;;;;;5.18;76.05;101185.84;124746;1106;101888;-85
2023/10/17 03:09:32;;;;;;;19.63;8.20;;;;;;;5.23;76.15;101186.16;124740;1104;104258;-83
2023/10/17 03:12:08;;;;;;;19.33;9.13;;;;;;;5.28;76.14;101189.95;124621;1105;104217;-83
2023/10/17 03:14:49;;;;;;;20.53;8.97;;;;;;;5.32;77.00;101191.09;125767;1103;102045;-84
2023/10/17 03:17:22;;;;;;;19.03;8.90;;;;;;;5.35;76.50;101191.30;124697;1105;101948;-85
2023/10/17 03:19:51;;;;;;;19.53;9.30;;;;;;;5.37;76.64;101185.38;124637;1106;104239;-84
2023/10/17 03:22:24;;;;;;;19.00;8.60;;;;;;;5.39;76.82;101185.48;124637;1105;104329;-85
2023/10/17 03:25:01;;;;;;;17.93;8.63;;;;;;;5.39;76.49;101178.59;124709;1105;101887;-85
2023/10/17 03:27:36;;;;;;;21.67;8.70;;;;;;;5.42;76.50;101183.09;124647;1105;101833;-84
2023/10/17 03:30:08;;;;;;;21.23;8.37;;;;;;;5.44;76.90;101188.39;124708;1105;104383;-83
2023/10/17 03:32:52;;;;;;;17.67;7.73;;;;;;;5.44;76.32;101193.59;125845;1105;102063;-83
2023/10/17 03:35:21;;;;;;;17.00;7.72;;;;;;;5.41;76.57;101183.91;125462;1105;101929;-84
2023/10/17 03:37:51;;;;;;;19.53;8.40;;;;;;;5.42;76.23;101192.61;124705;1105;101948;-84
2023/10/17 03:40:29;;;;;;;17.77;8.23;;;;;;;5.42;76.54;101196.09;124832;1105;104185;-82
2023/10/17 03:43:04;;;;;;;20.77;8.07;;;;;;;5.42;77.10;101198.70;124625;1105;102021;-83
2023/10/17 03:45:43;;;;;;;19.17;7.80;;;;;;;5.45;77.02;101203.23;125219;1105;101833;-82
2023/10/17 03:48:14;;;;;;;22.13;8.37;;;;;;;5.51;77.36;101206.24;124754;1105;101970;-83
2023/10/17 03:50:58;;;;;;;19.60;8.55;;;;;;;5.55;77.10;101203.06;124663;1105;104181;-84
2023/10/17 03:53:30;;;;;;;17.73;8.10;;;;;;;5.60;76.93;101203.37;124679;1105;104261;-84
2023/10/17 03:56:00;;;;;;;20.83;9.07;;;;;;;5.63;76.80;101208.78;124723;1105;101920;-83
2023/10/17 03:58:43;;;;;;;20.40;8.35;;;;;;;5.66;77.44;101207.27;124683;1105;104296;-83
2023/10/17 04:01:12;;;;;;;19.83;8.23;;;;;;;5.70;77.55;101214.50;124718;1105;104191;-82
2023/10/17 04:03:42;;;;;;;17.07;8.13;;;;;;;5.74;77.43;101220.80;124747;1105;111584;-83
2023/10/17 04:06:20;;;;;;;21.53;9.20;;;;;;;5.79;77.81;101224.61;124811;1105;102063;-83
2023/10/17 04:08:50;;;;;;;22.03;9.20;;;;;;;5.81;77.49;101209.08;124967;1105;102306;-82
2023/10/17 04:11:25;;;;;;;23.00;9.30;;;;;;;5.82;77.65;101217.00;124708;1103;102122;-83
2023/10/17 04:14:00;;;;;;;19.53;8.80;;;;;;;5.85;78.03;101214.59;124807;1105;104236;-83
2023/10/17 04:16:33;;;;;;;19.70;9.07;;;;;;;5.88;77.97;101214.80;125494;1105;104223;-83
2023/10/17 04:19:07;;;;;;;19.27;8.43;;;;;;;5.90;77.87;101209.69;124716;1105;102333;-83
2023/10/17 04:21:45;;;;;;;19.77;8.87;;;;;;;5.90;78.23;101222.72;124691;1105;102229;-83
2023/10/17 04:24:14;;;;;;;21.67;8.47;;;;;;;5.91;77.83;101227.13;124642;1105;107909;-81
2023/10/17 04:26:44;;;;;;;21.37;8.63;;;;;;;5.92;78.14;101234.13;124911;1103;104227;-86
2023/10/17 04:29:17;;;;;;;20.10;8.97;;;;;;;5.91;78.21;101232.34;124735;1105;102077;-79
2023/10/17 04:31:47;;;;;;;23.33;9.40;;;;;;;5.88;77.93;101229.53;124609;1105;104271;-78
2023/10/17 04:34:21;;;;;;;21.55;9.00;;;;;;;5.88;78.28;101230.42;125455;1104;102041;-78
2023/10/17 04:36:51;;;;;;;18.20;9.00;;;;;;;5.87;78.65;101230.33;124477;1105;104188;-78
2023/10/17 04:39:34;;;;;;;24.77;10.67;;;;;;;5.82;78.19;101226.52;124601;1105;104172;-78
2023/10/17 04:42:06;;;;;;;27.37;9.47;;;;;;;5.84;78.48;101227.52;124618;1105;101994;-79
2023/10/17 04:44:36;;;;;;;19.90;9.57;;;;;;;5.86;78.74;101236.33;124817;1103;104239;-79
2023/10/17 04:47:26;;;;;;;25.23;9.67;;;;;;;5.86;78.46;101241.53;125109;1105;104689;-79
2023/10/17 04:49:55;;;;;;;23.37;9.10;;;;;;;5.81;78.40;101245.55;124565;1104;104191;-78
2023/10/17 04:52:29;;;;;;;21.00;9.63;;;;;;;5.78;78.63;101250.55;124683;1105;104271;-79
2023/10/17 04:55:17;;;;;;;22.20;10.07;;;;;;;5.79;78.47;101247.16;125393;1105;111578;-76
2023/10/17 04:57:56;;;;;;;23.87;10.30;;;;;;;5.82;78.66;101255.17;124987;1105;104184;-76
2023/10/17 05:03:27;;;;;;;22.27;9.90;;;;;;;5.88;79.02;101260.80;126073;1105;101938;-81
2023/10/17 05:09:12;;;;;;;23.97;10.70;;;;;;;5.98;79.17;101259.73;125991;1104;104179;-78
2023/10/17 06:17:22;;;;;;;26.53;8.77;;;;;;;7.44;80.04;101291.57;125252;1105;101846;-74
2023/10/17 06:19:50;;;;;;;21.60;9.00;;;;;;;7.55;79.87;101298.34;124357;1105;104205;-78
2023/10/17 06:23:23;;;;;;;19.50;8.03;;;;;;;7.61;79.76;101297.81;124556;1105;102233;-83
2023/10/17 06:28:29;;;;;;;18.70;6.70;;;;;;;7.70;80.00;101294.04;125463;1104;101992;-84
2023/10/17 06:34:03;;;;;;;23.07;8.00;;;;;;;7.83;79.82;101303.50;124651;1105;102052;-79
2023/10/17 06:36:39;;;;;;;18.77;7.60;;;;;;;7.97;79.74;101303.44;125018;1105;103280;-82
2023/10/17 06:39:24;;;;;;;16.70;7.43;;;;;;;8.13;80.07;101311.34;125385;1104;102012;-84
2023/10/17 06:42:13;;;;;;;20.40;7.77;;;;;;;8.27;80.03;101301.69;125383;1103;104185;-83
2023/10/17 06:45:19;;;;;;;17.47;7.73;;;;;;;8.45;80.56;101294.05;125906;1105;104366;-78
2023/10/17 06:48:07;;;;;;;20.13;7.90;;;;;;;8.61;79.90;101290.58;125731;1103;111695;-78
2023/10/17 06:53:34;;;;;;;21.10;8.00;;;;;;;8.80;79.26;101296.03;124880;1105;104307;-78
2023/10/17 06:56:38;;;;;;;;;;;;;;;;;;;;;
2023/10/17 06:59:35;;;;;;;20.13;8.47;;;;;;;9.09;79.63;101303.69;125493;1105;102177;-83
2023/10/17 07:02:32;;;;;;;19.53;8.30;;;;;;;9.20;79.88;101292.06;125494;1105;102001;-83
2023/10/17 07:05:30;;;;;;;;;;;;;;;;;;;;;
2023/10/17 07:08:36;;;;;;;19.47;7.30;;;;;;;9.44;79.70;101299.42;126532;1104;104185;-84
2023/10/17 07:11:26;;;;;;;20.27;8.10;;;;;;;9.52;79.17;101296.41;125184;1105;104184;-83
2023/10/17 07:17:17;;;;;;;23.83;8.73;;;;;;;9.69;79.69;101305.16;126100;1104;104169;-83
2023/10/17 07:20:01;;;;;;;23.57;8.80;;;;;;;9.81;78.98;101310.11;125590;1105;102076;-86
2023/10/17 07:23:13;;;;;;;26.63;8.67;;;;;;;9.90;78.76;101314.94;126303;1103;102428;-86
2023/10/17 07:26:11;;;;;;;22.60;9.03;;;;;;;9.96;78.68;101310.01;126566;1104;101813;-80
2023/10/17 07:29:10;;;;;;;22.93;9.13;;;;;;;10.08;78.85;101310.63;124665;1105;102344;-79
2023/10/17 07:32:54;;;;;;;21.80;8.97;;;;;;;10.22;79.07;101310.41;125127;1105;101896;-78
2023/10/17 07:36:05;;;;;;;21.90;8.43;;;;;;;10.33;78.86;101310.98;124654;1105;104316;-80
2023/10/17 07:39:15;;;;;;;;;;;;;;;;;;;;;
2023/10/17 07:42:14;;;;;;;20.23;8.07;;;;;;;10.49;78.17;101312.66;124835;1105;102298;-82
2023/10/17 07:44:51;;;;;;;21.20;8.73;;;;;;;10.51;77.72;101321.50;125067;1105;104075;-77
2023/10/17 07:47:57;;;;;;;22.97;9.03;;;;;;;10.54;77.27;101317.28;124653;1105;102168;-80
2023/10/17 07:50:45;;;;;;;22.17;9.27;;;;;;;10.59;78.13;101322.77;125085;1104;104265;-81
2023/10/17 07:53:22;;;;;;;22.17;9.33;;;;;;;10.67;77.86;101324.02;125036;1105;102330;-77
2023/10/17 07:56:13;;;;;;;28.67;9.43;;;;;;;10.73;77.41;101326.06;125165;1103;102255;-80
2023/10/17 07:59:04;;;;;;;18.48;8.60;;;;;;;10.79;77.41;101323.73;126406;1104;104194;-82
2023/10/17 08:02:18;;;;;;;23.80;9.17;;;;;;;10.85;77.31;101313.52;125524;1105;101815;-80
2023/10/17 08:05:23;;;;;;;20.53;7.80;;;;;;;10.87;76.65;101311.86;125082;1105;101922;-81
2023/10/17 08:08:33;;;;;;;20.30;8.23;;;;;;;10.90;76.37;101311.11;124720;1105;102351;-79
2023/10/17 08:11:37;;;;;;;20.15;7.40;;;;;;;10.91;75.59;101319.06;124312;1105;102050;-77
2023/10/17 08:14:27;;;;;;;;;;;;;;;;;;;;;
2023/10/17 08:17:27;;;;;;;22.53;7.60;;;;;;;10.94;74.12;101316.59;125233;1105;101864;-77
2023/10/17 08:20:48;;;;;;;;;;;;;;;;;;;;;
2023/10/17 08:23:08;;;;;;;19.60;7.10;;;;;;;11.04;75.29;101320.53;124181;1105;104367;-81
2023/10/17 08:25:52;;;;;;;17.73;6.70;;;;;;;11.14;75.44;101320.14;124249;1105;102270;-76
2023/10/17 08:28:37;;;;;;;;;;;;;;;11.20;72.87;101314.25;124390;1105;102089;-79
2023/10/17 08:31:22;;;;;;;19.33;6.13;;;;;;;11.30;74.21;101326.11;125803;1103;101857;-79
2023/10/17 08:34:09;;;;;;;;;;;;;;;11.31;71.76;101325.27;125675;1104;101814;-80
2023/10/17 08:36:53;;;;;;;18.47;5.77;;;;;;;11.36;73.55;101322.84;126060;1104;104321;-80
2023/10/17 08:39:51;;;;;;;14.07;4.87;;;;;;;11.38;72.81;101327.35;124253;1105;103375;-78
2023/10/17 08:42:30;;;;;;;16.53;5.17;;;;;;;11.36;71.97;101323.77;124389;1106;101781;-74
2023/10/17 08:45:15;;;;;;;13.00;5.10;;;;;;;11.36;72.23;101325.47;124372;1106;104217;-77
2023/10/17 08:47:48;;;;;;;16.23;5.03;;;;;;;11.37;72.04;101325.55;124627;1105;102225;-81
2023/10/17 08:50:23;;;;;;;13.23;5.43;;;;;;;11.36;71.61;101325.47;124577;1105;101926;-84
2023/10/17 08:53:23;;;;;;;15.00;4.90;;;;;;;11.38;71.57;101324.72;124699;1105;101873;-86
2023/10/17 08:56:14;;;;;;;19.87;5.27;;;;;;;11.45;71.36;101318.92;125146;1105;102271;-84
2023/10/17 08:59:14;;;;;;;14.63;4.90;;;;;;;11.49;70.46;101325.21;125085;1105;104204;-82
2023/10/17 09:02:02;;;;;;;14.13;4.90;;;;;;;11.47;68.85;101330.40;124968;1105;101829;-76
2023/10/17 09:07:22;;;;;;;11.43;4.30;;;;;;;11.55;69.62;101316.72;124103;1105;104146;-77
2023/10/17 09:10:04;;;;;;;13.93;5.03;;;;;;;11.54;69.74;101323.68;124126;1105;104179;-76
2023/10/17 09:12:42;;;;;;;14.17;5.00;;;;;;;11.55;69.62;101314.09;124964;1105;102793;-77
2023/10/17 09:15:37;;;;;;;;;;;;;;;;;;;;;
2023/10/17 09:18:10;;;;;;;11.67;4.93;;;;;;;11.57;68.38;101313.30;124978;1103;102101;-77
2023/10/17 09:20:40;;;;;;;15.23;5.50;;;;;;;11.54;67.56;101305.28;124009;1105;104252;-77
2023/10/17 09:23:28;;;;;;;15.87;5.10;;;;;;;11.60;68.68;101308.19;124601;1105;101886;-75
2023/10/17 09:26:07;;;;;;;14.57;4.93;;;;;;;11.68;68.60;101305.89;124022;1105;104204;-78
2023/10/17 09:28:36;;;;;;;13.57;4.80;;;;;;;11.74;67.91;101298.28;124360;1105;104305;-78
2023/10/17 09:31:13;;;;;;;15.13;4.30;;;;;;;11.77;67.06;101297.52;124123;1105;101904;-76
2023/10/17 09:34:13;;;;;;;13.43;4.67;;;;;;;11.78;67.65;101294.96;124293;1105;104198;-78
2023/10/17 09:36:46;;;;;;;12.13;4.20;;;;;;;11.84;67.56;101292.59;124964;1105;104283;-77
2023/10/17 09:39:39;;;;;;;14.60;4.40;;;;;;;11.85;67.23;101290.86;124032;1106;102799;-76
2023/10/17 09:42:10;;;;;;;13.27;4.37;;;;;;;11.86;66.42;101287.41;124296;1105;104176;-75
2023/10/17 09:44:41;;;;;;;14.67;4.97;;;;;;;11.89;67.03;101284.91;124211;1105;102022;-77
2023/10/17 09:47:15;;;;;;;12.97;4.47;;;;;;;11.94;66.45;101274.62;125166;1105;101990;-77
2023/10/17 09:49:48;;;;;;;10.90;4.17;;;;;;;11.95;65.89;101277.31;124190;1105;104174;-76
2023/10/17 09:52:20;;;;;;;12.80;4.30;;;;;;;12.00;66.32;101272.25;124165;1105;104208;-77
2023/10/17 09:54:51;;;;;;;11.17;4.13;;;;;;;12.00;65.77;101273.14;124075;1106;104245;-74
2023/10/17 09:57:24;;;;;;;11.43;3.77;;;;;;;12.00;65.16;101267.87;124055;1105;101964;-76
2023/10/17 10:00:08;;;;;;;8.40;4.27;;;;;;;12.01;65.09;101267.05;124472;1105;101901;-80
2023/10/17 10:02:40;;;;;;;12.70;4.27;;;;;;;12.10;65.62;101263.89;124371;1105;104227;-79
2023/10/17 10:05:24;;;;;;;11.50;4.23;;;;;;;12.15;64.80;101256.19;124453;1105;104211;-79
2023/10/17 10:08:04;;;;;;;11.33;4.27;;;;;;;12.21;64.63;101256.44;125241;1103;104189;-81
2023/10/17 10:10:56;;;;;;;18.33;5.00;;;;;;;12.29;64.49;101254.13;124903;1104;104169;-77
2023/10/17 10:13:31;;;;;;;10.90;4.05;;;;;;;12.36;64.31;101258.81;125113;1105;104166;-83
2023/10/17 10:16:08;;;;;;;11.73;4.25;;;;;;;12.39;64.23;101253.67;126161;1105;101522;-87
2023/10/17 10:22:42;;;;;;;11.33;4.47;;;;;;;12.57;63.62;101241.25;125287;1105;104175;-88
2023/10/17 10:25:52;;;;;;;8.35;3.72;;;;;;;12.62;62.86;101238.80;126406;1105;102588;-82
2023/10/17 10:28:37;;;;;;;10.40;3.60;;;;;;;12.70;62.34;101242.62;125564;1104;104108;-80
2023/10/17 10:31:49;;;;;;;13.00;3.80;;;;;;;12.80;63.33;101245.61;126623;1104;101874;-81
2023/10/17 10:35:16;;;;;;;10.97;4.10;;;;;;;12.81;62.19;101235.13;125383;1105;110845;-81
2023/10/17 10:37:52;;;;;;;12.43;4.37;;;;;;;12.94;63.23;101240.01;125179;1105;101804;-82
2023/10/17 10:40:33;;;;;;;13.27;4.00;;;;;;;12.97;61.63;101225.19;124844;1103;104245;-81
2023/10/17 10:43:06;;;;;;;11.40;3.93;;;;;;;12.93;61.77;101227.70;125094;1105;102038;-80
2023/10/17 10:45:46;;;;;;;12.83;3.40;;;;;;;12.93;61.42;101225.06;124230;1106;102137;-79
2023/10/17 10:48:17;;;;;;;10.83;3.53;;;;;;;12.89;59.94;101227.52;124838;1105;101861;-77
2023/10/17 10:50:55;;;;;;;12.07;3.80;;;;;;;12.82;59.97;101223.73;124867;1105;101868;-79
2023/10/17 10:53:41;;;;;;;11.23;3.60;;;;;;;12.83;60.49;101220.28;125036;1105;102125;-77
2023/10/17 11:00:39;;;;;;;;;;;;;;;;;;;;;
2023/10/17 11:04:08;;;;;;;;;;;;;;;;;;;;;
2023/10/17 11:07:35;;;;;;;9.77;3.10;;;;;;;12.91;57.86;101207.39;124445;1109;102066;-78
2023/10/17 11:11:00;;;;;;;9.73;3.47;;;;;;;12.89;57.39;101215.24;124688;1107;102279;-79
2023/10/17 11:17:06;;;;;;;11.87;3.47;;;;;;;12.80;57.68;101204.36;124923;1109;103753;-81
2023/10/17 11:19:48;;;;;;;14.10;3.77;;;;;;;12.80;57.01;101212.26;125969;1105;101954;-80
2023/10/17 11:22:22;;;;;;;9.17;3.77;;;;;;;12.80;57.38;101206.11;125631;1105;101790;-85
2023/10/17 11:24:51;;;;;;;;;;;;;;;12.82;53.89;101207.05;124760;1105;104175;-80
2023/10/17 11:27:23;;;;;;;9.43;3.70;;;;;;;12.85;56.89;101204.53;124160;1105;104230;-77
2023/10/17 11:29:59;;;;;;;10.80;3.70;;;;;;;12.87;57.01;101202.84;124214;1105;102225;-76
2023/10/17 11:33:10;;;;;;;9.15;3.15;;;;;;;12.93;56.48;101200.44;125668;1105;101918;-77
2023/10/17 11:35:49;;;;;;;11.27;4.47;;;;;;;13.02;56.62;101202.53;124281;1105;104208;-81
2023/10/17 11:38:35;;;;;;;7.73;3.27;;;;;;;13.01;56.54;101195.45;125860;1104;101946;-78
2023/10/17 11:41:06;;;;;;;9.33;4.20;;;;;;;13.02;56.35;101200.78;125835;1104;101913;-78
2023/10/17 11:43:51;;;;;;;11.37;3.87;;;;;;;13.05;56.20;101192.11;124514;1105;102067;-77
2023/10/17 11:46:41;;;;;;;;;;;;;;;13.06;56.31;101183.38;124124;1105;111246;-74
2023/10/17 11:49:25;;;;;;;11.53;4.20;;;;;;;13.08;56.01;101189.58;124075;1105;104322;-79
2023/10/17 11:52:00;;;;;;;8.77;3.77;;;;;;;13.12;56.60;101181.84;125227;1104;101923;-77
2023/10/17 11:54:53;;;;;;;8.97;3.53;;;;;;;13.18;56.63;101181.15;124593;1105;101969;-74
2023/10/17 11:57:40;;;;;;;10.95;3.83;;;;;;;13.14;55.95;101184.53;124329;1105;104258;-79
2023/10/17 12:00:19;;;;;;;9.03;3.73;;;;;;;13.13;56.13;101177.46;124435;1105;104176;-78
2023/10/17 12:03:00;;;;;;;6.83;3.40;;;;;;;13.09;55.69;101178.22;124662;1105;104255;-77
2023/10/17 12:08:29;;;;;;;10.67;3.80;;;;;;;13.04;55.54;101171.86;124275;1104;104403;-76
2023/10/17 12:11:01;;;;;;;9.57;3.40;;;;;;;13.01;54.96;101172.66;124554;1105;101837;-80
2023/10/17 12:13:34;;;;;;;8.10;3.27;;;;;;;13.00;55.70;101169.97;124964;1106;102801;-77
2023/10/17 12:16:11;;;;;;;9.97;3.23;;;;;;;13.01;55.53;101172.66;124918;1105;101790;-78
2023/10/17 12:18:40;;;;;;;13.75;4.15;;;;;;;12.98;54.95;101169.92;124532;1105;102490;-84
2023/10/17 12:21:14;;;;;;;11.70;3.77;;;;;;;12.92;55.36;101172.33;125496;1104;102227;-80
2023/10/17 12:23:47;;;;;;;13.55;3.58;;;;;;;12.87;55.39;101166.89;125052;1105;104061;-83
2023/10/17 12:26:27;;;;;;;8.17;3.23;;;;;;;12.85;54.72;101173.81;125710;1103;104181;-75
2023/10/17 12:29:28;;;;;;;8.90;3.20;;;;;;;12.81;54.81;101171.92;125299;1104;101961;-80
2023/10/17 12:32:17;;;;;;;10.57;3.40;;;;;;;12.82;55.09;101178.97;125899;1103;101979;-80
2023/10/17 12:38:43;;;;;;;8.13;3.47;;;;;;;12.78;54.56;101177.08;125834;1104;101844;-84
2023/10/17 12:41:41;;;;;;;8.40;3.10;;;;;;;12.81;54.95;101176.27;125076;1105;102180;-82
2023/10/17 12:44:41;;;;;;;7.33;3.13;;;;;;;12.79;54.34;101170.95;124972;1105;102096;-78
2023/10/17 12:47:30;;;;;;;7.37;3.20;;;;;;;12.75;54.08;101174.33;126342;1103;102022;-79
2023/10/17 12:50:07;;;;;;;12.77;3.50;;;;;;;12.67;53.77;101171.41;126280;1105;102254;-80
2023/10/17 12:53:27;;;;;;;10.30;3.50;;;;;;;12.63;53.82;101160.70;125296;1105;104213;-81
2023/10/17 12:56:04;;;;;;;10.50;3.57;;;;;;;12.61;53.64;101158.01;125592;1105;104178;-79
2023/10/17 12:58:36;;;;;;;9.00;3.80;;;;;;;12.61;54.09;101151.86;124667;1105;102034;-77
2023/10/17 13:01:11;;;;;;;8.13;3.77;;;;;;;12.58;53.87;101152.63;125211;1104;104233;-78
2023/10/17 13:03:45;;;;;;;6.93;3.80;;;;;;;12.53;53.75;101149.81;125039;1106;101982;-81
2023/10/17 13:06:17;;;;;;;17.77;3.87;;;;;;;12.54;54.42;101153.34;124990;1105;102236;-78
2023/10/17 13:08:48;;;;;;;10.13;3.57;;;;;;;12.52;53.89;101150.64;125104;1106;101841;-77
2023/10/17 13:11:21;;;;;;;11.50;4.07;;;;;;;12.47;53.87;101152.22;124612;1105;102048;-76
2023/10/17 13:13:59;;;;;;;10.93;3.77;;;;;;;12.49;53.86;101158.42;124436;1105;102195;-79
2023/10/17 13:16:41;;;;;;;13.03;3.80;;;;;;;12.48;53.81;101151.39;125403;1105;104211;-82
2023/10/17 13:19:39;;;;;;;11.37;3.80;;;;;;;12.44;53.57;101148.58;124981;1105;104323;-79
2023/10/17 13:22:26;;;;;;;8.57;4.23;;;;;;;12.38;52.72;101159.75;124710;1103;104166;-79
2023/10/17 13:25:28;;;;;;;9.00;3.60;;;;;;;12.34;53.49;101144.67;124619;1105;101964;-78
2023/10/17 13:28:07;;;;;;;11.03;4.20;;;;;;;12.31;53.63;101141.92;124669;1105;104236;-80
2023/10/17 13:30:42;;;;;;;10.20;3.80;;;;;;;12.31;53.40;101152.45;124519;1105;102251;-80
2023/10/17 13:33:15;;;;;;;10.67;4.00;;;;;;;12.26;53.60;101147.00;124489;1106;101965;-80
2023/10/17 13:35:50;;;;;;;10.70;3.63;;;;;;;12.22;53.57;101130.20;125056;1105;101836;-79
2023/10/17 13:38:23;;;;;;;7.33;3.60;;;;;;;12.23;53.61;101133.72;125308;1105;104255;-78
2023/10/17 13:41:03;;;;;;;12.10;3.90;;;;;;;12.25;53.91;101139.05;124351;1105;104248;-77
2023/10/17 13:43:51;;;;;;;;;;;;;;;;;;;;;
2023/10/17 13:46:35;;;;;;;8.70;4.03;;;;;;;12.30;54.28;101129.62;126372;1104;101786;-80
2023/10/17 13:49:38;;;;;;;10.03;3.90;;;;;;;12.33;54.31;101124.48;125025;1104;101826;-76
2023/10/17 13:52:18;;;;;;;9.53;3.83;;;;;;;12.33;54.02;101121.84;125185;1105;104349;-78
2023/10/17 13:54:49;;;;;;;9.95;3.80;;;;;;;12.31;53.98;101131.39;124550;1105;104358;-76
2023/10/17 13:57:22;;;;;;;11.07;3.50;;;;;;;12.28;53.98;101126.02;124208;1105;101948;-76
2023/10/17 13:59:53;;;;;;;8.07;3.60;;;;;;;12.23;53.64;101118.86;124108;1105;104242;-76
2023/10/17 14:02:25;;;;;;;12.57;4.37;;;;;;;12.19;53.43;101116.94;124440;1105;101891;-77
2023/10/17 14:04:55;;;;;;;8.80;3.77;;;;;;;12.15;53.27;101120.27;124667;1105;104182;-76